Atlanta, MI

6:49 AM EDT on October 31, 2014 (GMT -0400)
Moon Lake | Change Station
CLOSE
Current Station
Personal Weather Station
Location: Lewiston, MI
Elevation: 1240 ft
Nearby Weather Stations
Active Advisory: Special Statement

Elev 1240 ft 44.84 °N, 84.26 °W | Updated 8 minutes ago

Rain
Rain
37.8 °F
Feels Like 38 °F
N
0.0
Wind Variable Wind from NW
Gusts 0.0 mph

Today
High -- | Low -- °F
--% Chance of Precip.
Yesterday
High -- | Low -- °F
Precip. -- in
8:13 AM 6:26 PM
First Quarter, 54% visible
Pressure 29.92 in
Visibility 4.0 miles
Clouds Mostly Cloudy 600 ft
Overcast 1400 ft
Windchill 38 °F
Dew Point 36 °F
Humidity 92%
Rainfall 0.05 in
Snow Depth Not available.
UV 0 out of 12
Pollen .10 out of 12
Air Quality Not available.
Flu Activity Not available.
METAR KGLR 310953Z AUTO VRB05KT 4SM -RA BR BKN006 OVC014 02/02 A2989 RMK AO2 SLP132 P0001 T00220017

More Conditions Fewer Conditions

Pressure 29.92 in
Visibility 4.0 miles
Clouds Mostly Cloudy 600 ft
Overcast 1400 ft
Windchill 38 °F
Dew Point 36 °F
Humidity 92%
Rainfall 0.05 in
Snow Depth Not available.
UV 0 out of 12
Pollen .10 out of 12
Air Quality Not available.
Flu Activity Not available.
METAR KGLR 310953Z AUTO VRB05KT 4SM -RA BR BKN006 OVC014 02/02 A2989 RMK AO2 SLP132 P0001 T00220017

More Conditions Fewer Conditions

Nowcast | as of 6:00 am EDT on October 31, 2014

At 7 am...snow. Temperature 35. North winds 12 mph. At 9 am...snow. Temperature 34. North winds 14 mph with gusts to 30 mph. At 11 am...snow. Temperature 33. North winds 16 mph with gusts to 35 mph. At 1 PM...snow. Temperature 32. North winds 17 mph with gusts to 35 mph.

×

10-Day Weather Forecast

Almanac

Astronomy

Oct. 31, 2014 Rise Set
Actual Time
Civil Twilight
Nautical Twilight
Astronomical Twilight
Moon
Length of Visible Light
Length of Day
Tomorrow will be .
, % of the Moon is Illuminated

Today's Extremes

State Highs State Lows

Community

WunderPhotos

Upload Photos

1,766,580 photos uploaded!

WunderBlogs® & News

Nearby

Air Quality

  Air Quality AQ Index Pollutant
Not available.

Snow Depth

Station Depth Elevation

Earthquake Activity

City Distance Mag. Time & Date
Minimum magnitude displayed is 2.5.

Coastal Water Temperatures

Place Temperature

Nearby Weather Stations